sensor_id;sensor_type;location;lat;lon;timestamp;P1;durP1;ratioP1;P2;durP2;ratioP2
5939;SDS011;2995;-31.998;115.906;2023-02-11T00:02:07;5.90;;;2.13;;
5939;SDS011;2995;-31.998;115.906;2023-02-11T00:04:38;10.93;;;2.23;;
5939;SDS011;2995;-31.998;115.906;2023-02-11T00:07:09;7.93;;;1.93;;
5939;SDS011;2995;-31.998;115.906;2023-02-11T00:09:42;9.80;;;2.07;;
5939;SDS011;2995;-31.998;115.906;2023-02-11T00:12:14;10.80;;;2.50;;
5939;SDS011;2995;-31.998;115.906;2023-02-11T00:14:45;5.40;;;1.90;;
5939;SDS011;2995;-31.998;115.906;2023-02-11T00:17:16;12.70;;;2.30;;
5939;SDS011;2995;-31.998;115.906;2023-02-11T00:19:48;9.97;;;2.10;;
5939;SDS011;2995;-31.998;115.906;2023-02-11T00:22:20;8.33;;;1.83;;
5939;SDS011;2995;-31.998;115.906;2023-02-11T00:24:53;8.07;;;2.57;;
5939;SDS011;2995;-31.998;115.906;2023-02-11T00:27:33;5.20;;;1.73;;
5939;SDS011;2995;-31.998;115.906;2023-02-11T00:30:09;11.37;;;2.40;;
5939;SDS011;2995;-31.998;115.906;2023-02-11T00:32:42;7.80;;;2.37;;
5939;SDS011;2995;-31.998;115.906;2023-02-11T00:35:13;9.77;;;1.90;;
5939;SDS011;2995;-31.998;115.906;2023-02-11T00:37:45;6.10;;;2.03;;
5939;SDS011;2995;-31.998;115.906;2023-02-11T00:40:18;7.47;;;2.17;;
5939;SDS011;2995;-31.998;115.906;2023-02-11T00:42:49;8.30;;;2.40;;
5939;SDS011;2995;-31.998;115.906;2023-02-11T00:45:21;7.90;;;2.33;;
5939;SDS011;2995;-31.998;115.906;2023-02-11T00:47:56;6.83;;;2.10;;
5939;SDS011;2995;-31.998;115.906;2023-02-11T00:50:27;6.97;;;2.00;;
5939;SDS011;2995;-31.998;115.906;2023-02-11T00:52:58;7.20;;;2.70;;
5939;SDS011;2995;-31.998;115.906;2023-02-11T00:55:32;11.87;;;2.00;;
5939;SDS011;2995;-31.998;115.906;2023-02-11T00:58:03;5.53;;;1.93;;
5939;SDS011;2995;-31.998;115.906;2023-02-11T01:00:34;9.90;;;2.20;;
5939;SDS011;2995;-31.998;115.906;2023-02-11T01:03:05;7.93;;;2.07;;
5939;SDS011;2995;-31.998;115.906;2023-02-11T01:05:37;5.20;;;1.67;;
5939;SDS011;2995;-31.998;115.906;2023-02-11T01:08:08;8.83;;;2.30;;
5939;SDS011;2995;-31.998;115.906;2023-02-11T01:10:41;7.57;;;1.73;;
5939;SDS011;2995;-31.998;115.906;2023-02-11T01:13:12;5.77;;;2.23;;
5939;SDS011;2995;-31.998;115.906;2023-02-11T01:15:44;11.17;;;2.40;;
5939;SDS011;2995;-31.998;115.906;2023-02-11T01:18:15;7.93;;;1.80;;
5939;SDS011;2995;-31.998;115.906;2023-02-11T01:20:47;12.17;;;2.07;;
5939;SDS011;2995;-31.998;115.906;2023-02-11T01:23:19;6.07;;;1.70;;
5939;SDS011;2995;-31.998;115.906;2023-02-11T01:25:52;8.43;;;2.13;;
5939;SDS011;2995;-31.998;115.906;2023-02-11T01:28:25;10.97;;;1.80;;
5939;SDS011;2995;-31.998;115.906;2023-02-11T01:30:56;3.53;;;1.73;;
5939;SDS011;2995;-31.998;115.906;2023-02-11T01:33:28;7.43;;;1.90;;
5939;SDS011;2995;-31.998;115.906;2023-02-11T01:36:00;6.03;;;1.87;;
5939;SDS011;2995;-31.998;115.906;2023-02-11T01:38:32;6.43;;;2.00;;
5939;SDS011;2995;-31.998;115.906;2023-02-11T01:41:09;7.87;;;1.90;;
5939;SDS011;2995;-31.998;115.906;2023-02-11T01:43:42;11.10;;;2.30;;
5939;SDS011;2995;-31.998;115.906;2023-02-11T01:49:10;6.07;;;1.70;;
5939;SDS011;2995;-31.998;115.906;2023-02-11T01:51:45;8.73;;;1.97;;
5939;SDS011;2995;-31.998;115.906;2023-02-11T01:54:20;7.00;;;2.03;;
5939;SDS011;2995;-31.998;115.906;2023-02-11T01:57:11;8.03;;;1.93;;
5939;SDS011;2995;-31.998;115.906;2023-02-11T01:59:57;6.27;;;2.10;;
5939;SDS011;2995;-31.998;115.906;2023-02-11T02:02:38;8.97;;;1.83;;
5939;SDS011;2995;-31.998;115.906;2023-02-11T02:05:18;6.87;;;1.67;;
5939;SDS011;2995;-31.998;115.906;2023-02-11T02:07:59;7.87;;;1.70;;
5939;SDS011;2995;-31.998;115.906;2023-02-11T02:10:34;4.17;;;1.73;;
5939;SDS011;2995;-31.998;115.906;2023-02-11T02:13:10;7.03;;;2.30;;
5939;SDS011;2995;-31.998;115.906;2023-02-11T02:15:44;8.80;;;2.33;;
5939;SDS011;2995;-31.998;115.906;2023-02-11T02:18:21;9.47;;;1.83;;
5939;SDS011;2995;-31.998;115.906;2023-02-11T02:21:14;3.30;;;1.63;;
5939;SDS011;2995;-31.998;115.906;2023-02-11T02:24:12;7.03;;;1.80;;
5939;SDS011;2995;-31.998;115.906;2023-02-11T02:27:22;5.93;;;2.20;;
5939;SDS011;2995;-31.998;115.906;2023-02-11T02:36:08;4.73;;;1.50;;
5939;SDS011;2995;-31.998;115.906;2023-02-11T02:38:47;5.53;;;1.50;;
5939;SDS011;2995;-31.998;115.906;2023-02-11T02:41:23;3.73;;;1.43;;
5939;SDS011;2995;-31.998;115.906;2023-02-11T02:43:58;6.57;;;1.57;;
5939;SDS011;2995;-31.998;115.906;2023-02-11T02:46:30;7.17;;;2.07;;
5939;SDS011;2995;-31.998;115.906;2023-02-11T02:49:05;5.23;;;1.53;;
5939;SDS011;2995;-31.998;115.906;2023-02-11T02:51:44;3.60;;;1.60;;
5939;SDS011;2995;-31.998;115.906;2023-02-11T02:54:51;6.07;;;1.60;;
5939;SDS011;2995;-31.998;115.906;2023-02-11T02:57:37;4.40;;;1.30;;
5939;SDS011;2995;-31.998;115.906;2023-02-11T03:00:22;5.63;;;1.70;;
5939;SDS011;2995;-31.998;115.906;2023-02-11T03:03:03;5.53;;;1.50;;
5939;SDS011;2995;-31.998;115.906;2023-02-11T03:05:45;5.87;;;1.60;;
5939;SDS011;2995;-31.998;115.906;2023-02-11T03:08:24;9.43;;;1.80;;
5939;SDS011;2995;-31.998;115.906;2023-02-11T03:10:59;7.03;;;1.77;;
5939;SDS011;2995;-31.998;115.906;2023-02-11T03:13:31;4.63;;;1.50;;
5939;SDS011;2995;-31.998;115.906;2023-02-11T03:16:06;4.43;;;1.97;;
5939;SDS011;2995;-31.998;115.906;2023-02-11T03:18:42;6.97;;;1.43;;
5939;SDS011;2995;-31.998;115.906;2023-02-11T03:21:18;7.13;;;1.60;;
5939;SDS011;2995;-31.998;115.906;2023-02-11T03:23:51;4.10;;;1.73;;
5939;SDS011;2995;-31.998;115.906;2023-02-11T03:26:25;4.43;;;1.67;;
5939;SDS011;2995;-31.998;115.906;2023-02-11T03:29:01;3.37;;;1.53;;
5939;SDS011;2995;-31.998;115.906;2023-02-11T03:31:39;6.30;;;1.40;;
5939;SDS011;2995;-31.998;115.906;2023-02-11T03:34:15;6.60;;;1.73;;
5939;SDS011;2995;-31.998;115.906;2023-02-11T03:36:54;5.30;;;1.50;;
5939;SDS011;2995;-31.998;115.906;2023-02-11T03:39:30;8.20;;;1.50;;
5939;SDS011;2995;-31.998;115.906;2023-02-11T03:42:04;10.40;;;2.00;;
5939;SDS011;2995;-31.998;115.906;2023-02-11T03:44:39;7.27;;;2.07;;
5939;SDS011;2995;-31.998;115.906;2023-02-11T03:47:13;5.07;;;1.60;;
5939;SDS011;2995;-31.998;115.906;2023-02-11T03:49:48;7.10;;;1.67;;
5939;SDS011;2995;-31.998;115.906;2023-02-11T03:52:23;7.80;;;1.53;;
5939;SDS011;2995;-31.998;115.906;2023-02-11T03:54:55;13.63;;;1.77;;
5939;SDS011;2995;-31.998;115.906;2023-02-11T03:57:29;6.20;;;1.60;;
5939;SDS011;2995;-31.998;115.906;2023-02-11T04:00:00;4.60;;;1.67;;
5939;SDS011;2995;-31.998;115.906;2023-02-11T04:02:32;8.77;;;1.77;;
5939;SDS011;2995;-31.998;115.906;2023-02-11T04:05:04;8.27;;;2.13;;
5939;SDS011;2995;-31.998;115.906;2023-02-11T04:07:39;5.67;;;1.93;;
5939;SDS011;2995;-31.998;115.906;2023-02-11T04:10:11;4.50;;;1.70;;
5939;SDS011;2995;-31.998;115.906;2023-02-11T04:12:42;7.13;;;1.73;;
5939;SDS011;2995;-31.998;115.906;2023-02-11T04:15:13;8.43;;;1.83;;
5939;SDS011;2995;-31.998;115.906;2023-02-11T04:17:45;2.47;;;1.30;;
5939;SDS011;2995;-31.998;115.906;2023-02-11T04:20:16;2.67;;;1.50;;
5939;SDS011;2995;-31.998;115.906;2023-02-11T04:22:49;5.17;;;1.50;;
5939;SDS011;2995;-31.998;115.906;2023-02-11T04:25:21;4.57;;;1.60;;
5939;SDS011;2995;-31.998;115.906;2023-02-11T04:27:52;6.57;;;1.70;;
5939;SDS011;2995;-31.998;115.906;2023-02-11T04:30:23;7.60;;;1.90;;
5939;SDS011;2995;-31.998;115.906;2023-02-11T04:32:55;5.60;;;1.60;;
5939;SDS011;2995;-31.998;115.906;2023-02-11T04:35:27;7.40;;;1.70;;
5939;SDS011;2995;-31.998;115.906;2023-02-11T04:38:00;4.30;;;1.30;;
5939;SDS011;2995;-31.998;115.906;2023-02-11T04:40:32;6.87;;;1.93;;
5939;SDS011;2995;-31.998;115.906;2023-02-11T04:43:03;7.60;;;1.80;;
5939;SDS011;2995;-31.998;115.906;2023-02-11T04:45:34;5.77;;;1.83;;
5939;SDS011;2995;-31.998;115.906;2023-02-11T04:48:06;4.63;;;1.80;;
5939;SDS011;2995;-31.998;115.906;2023-02-11T04:50:37;6.17;;;2.03;;
5939;SDS011;2995;-31.998;115.906;2023-02-11T04:53:10;4.80;;;1.70;;
5939;SDS011;2995;-31.998;115.906;2023-02-11T04:55:41;5.40;;;1.70;;
5939;SDS011;2995;-31.998;115.906;2023-02-11T04:58:12;7.37;;;2.40;;
5939;SDS011;2995;-31.998;115.906;2023-02-11T05:00:44;5.30;;;1.80;;
5939;SDS011;2995;-31.998;115.906;2023-02-11T05:03:15;8.43;;;1.73;;
5939;SDS011;2995;-31.998;115.906;2023-02-11T05:05:47;5.83;;;1.80;;
5939;SDS011;2995;-31.998;115.906;2023-02-11T05:08:20;5.70;;;1.60;;
5939;SDS011;2995;-31.998;115.906;2023-02-11T05:10:51;6.20;;;1.80;;
5939;SDS011;2995;-31.998;115.906;2023-02-11T05:13:23;3.27;;;1.60;;
5939;SDS011;2995;-31.998;115.906;2023-02-11T05:15:54;8.57;;;1.57;;
5939;SDS011;2995;-31.998;115.906;2023-02-11T05:18:25;6.57;;;1.70;;
5939;SDS011;2995;-31.998;115.906;2023-02-11T05:20:56;5.07;;;1.63;;
5939;SDS011;2995;-31.998;115.906;2023-02-11T05:23:30;5.73;;;1.60;;
5939;SDS011;2995;-31.998;115.906;2023-02-11T05:26:01;3.63;;;1.63;;
5939;SDS011;2995;-31.998;115.906;2023-02-11T05:28:33;3.93;;;1.40;;
5939;SDS011;2995;-31.998;115.906;2023-02-11T05:31:04;4.93;;;1.73;;
5939;SDS011;2995;-31.998;115.906;2023-02-11T05:33:35;8.63;;;2.50;;
5939;SDS011;2995;-31.998;115.906;2023-02-11T05:36:07;8.30;;;2.10;;
5939;SDS011;2995;-31.998;115.906;2023-02-11T05:38:42;6.10;;;2.00;;
5939;SDS011;2995;-31.998;115.906;2023-02-11T05:41:13;9.70;;;2.10;;
5939;SDS011;2995;-31.998;115.906;2023-02-11T05:43:46;6.47;;;1.80;;
5939;SDS011;2995;-31.998;115.906;2023-02-11T05:46:17;7.60;;;2.10;;
5939;SDS011;2995;-31.998;115.906;2023-02-11T05:48:49;6.20;;;2.57;;
5939;SDS011;2995;-31.998;115.906;2023-02-11T05:51:21;11.90;;;2.20;;
5939;SDS011;2995;-31.998;115.906;2023-02-11T05:53:55;7.07;;;2.13;;
5939;SDS011;2995;-31.998;115.906;2023-02-11T05:56:26;5.87;;;2.00;;
5939;SDS011;2995;-31.998;115.906;2023-02-11T05:58:58;9.00;;;2.30;;
5939;SDS011;2995;-31.998;115.906;2023-02-11T06:01:29;7.70;;;2.10;;
5939;SDS011;2995;-31.998;115.906;2023-02-11T06:04:00;7.60;;;1.97;;
5939;SDS011;2995;-31.998;115.906;2023-02-11T06:06:32;6.00;;;1.90;;
5939;SDS011;2995;-31.998;115.906;2023-02-11T06:09:05;7.70;;;2.17;;
5939;SDS011;2995;-31.998;115.906;2023-02-11T06:11:37;6.00;;;1.90;;
5939;SDS011;2995;-31.998;115.906;2023-02-11T06:14:09;5.83;;;2.37;;
5939;SDS011;2995;-31.998;115.906;2023-02-11T06:16:40;4.70;;;1.90;;
5939;SDS011;2995;-31.998;115.906;2023-02-11T06:19:11;8.63;;;2.10;;
5939;SDS011;2995;-31.998;115.906;2023-02-11T06:21:42;5.93;;;1.80;;
5939;SDS011;2995;-31.998;115.906;2023-02-11T06:24:16;5.87;;;2.03;;
5939;SDS011;2995;-31.998;115.906;2023-02-11T06:26:47;9.93;;;2.43;;
5939;SDS011;2995;-31.998;115.906;2023-02-11T06:29:18;9.67;;;2.30;;
5939;SDS011;2995;-31.998;115.906;2023-02-11T06:31:50;10.77;;;2.33;;
5939;SDS011;2995;-31.998;115.906;2023-02-11T06:34:21;8.03;;;2.37;;
5939;SDS011;2995;-31.998;115.906;2023-02-11T06:36:53;11.63;;;2.60;;
5939;SDS011;2995;-31.998;115.906;2023-02-11T06:39:26;8.80;;;2.00;;
5939;SDS011;2995;-31.998;115.906;2023-02-11T06:41:57;4.90;;;1.77;;
5939;SDS011;2995;-31.998;115.906;2023-02-11T06:44:29;8.00;;;1.90;;
5939;SDS011;2995;-31.998;115.906;2023-02-11T06:47:00;6.47;;;2.07;;
5939;SDS011;2995;-31.998;115.906;2023-02-11T06:49:31;9.47;;;2.37;;
5939;SDS011;2995;-31.998;115.906;2023-02-11T06:52:02;5.30;;;1.90;;
5939;SDS011;2995;-31.998;115.906;2023-02-11T06:54:36;8.07;;;1.90;;
5939;SDS011;2995;-31.998;115.906;2023-02-11T06:57:07;9.50;;;2.40;;
5939;SDS011;2995;-31.998;115.906;2023-02-11T06:59:38;5.20;;;2.10;;
5939;SDS011;2995;-31.998;115.906;2023-02-11T07:02:10;6.53;;;2.23;;
5939;SDS011;2995;-31.998;115.906;2023-02-11T07:04:41;9.43;;;2.70;;
5939;SDS011;2995;-31.998;115.906;2023-02-11T07:07:12;4.33;;;1.67;;
5939;SDS011;2995;-31.998;115.906;2023-02-11T07:09:46;5.30;;;1.77;;
5939;SDS011;2995;-31.998;115.906;2023-02-11T07:12:17;7.07;;;2.13;;
5939;SDS011;2995;-31.998;115.906;2023-02-11T07:14:48;7.13;;;2.00;;
5939;SDS011;2995;-31.998;115.906;2023-02-11T07:17:19;8.70;;;2.00;;
5939;SDS011;2995;-31.998;115.906;2023-02-11T07:19:51;11.10;;;1.90;;
5939;SDS011;2995;-31.998;115.906;2023-02-11T07:22:22;12.77;;;2.50;;
5939;SDS011;2995;-31.998;115.906;2023-02-11T07:24:56;11.03;;;2.20;;
5939;SDS011;2995;-31.998;115.906;2023-02-11T07:27:27;9.30;;;2.47;;
5939;SDS011;2995;-31.998;115.906;2023-02-11T07:29:58;5.07;;;1.83;;
5939;SDS011;2995;-31.998;115.906;2023-02-11T07:32:29;9.10;;;2.27;;
5939;SDS011;2995;-31.998;115.906;2023-02-11T07:35:01;9.13;;;2.30;;
5939;SDS011;2995;-31.998;115.906;2023-02-11T07:37:32;8.03;;;2.17;;
5939;SDS011;2995;-31.998;115.906;2023-02-11T07:40:06;7.43;;;2.33;;
5939;SDS011;2995;-31.998;115.906;2023-02-11T07:42:44;11.17;;;2.30;;
5939;SDS011;2995;-31.998;115.906;2023-02-11T07:45:15;9.37;;;2.27;;
5939;SDS011;2995;-31.998;115.906;2023-02-11T07:47:47;11.87;;;2.40;;
5939;SDS011;2995;-31.998;115.906;2023-02-11T07:50:18;7.30;;;2.40;;
5939;SDS011;2995;-31.998;115.906;2023-02-11T07:52:49;10.40;;;1.90;;
5939;SDS011;2995;-31.998;115.906;2023-02-11T07:55:23;9.03;;;1.97;;
5939;SDS011;2995;-31.998;115.906;2023-02-11T07:57:54;6.00;;;2.07;;
5939;SDS011;2995;-31.998;115.906;2023-02-11T08:00:25;10.70;;;1.80;;
5939;SDS011;2995;-31.998;115.906;2023-02-11T08:02:57;14.20;;;2.30;;
5939;SDS011;2995;-31.998;115.906;2023-02-11T08:05:28;8.80;;;1.97;;
5939;SDS011;2995;-31.998;115.906;2023-02-11T08:07:59;5.53;;;1.93;;
5939;SDS011;2995;-31.998;115.906;2023-02-11T08:10:32;11.77;;;2.20;;
5939;SDS011;2995;-31.998;115.906;2023-02-11T08:13:03;8.47;;;2.27;;
5939;SDS011;2995;-31.998;115.906;2023-02-11T08:15:35;8.20;;;2.23;;
5939;SDS011;2995;-31.998;115.906;2023-02-11T08:18:06;9.20;;;2.00;;
5939;SDS011;2995;-31.998;115.906;2023-02-11T08:20:37;9.63;;;2.20;;
5939;SDS011;2995;-31.998;115.906;2023-02-11T08:23:08;9.17;;;2.30;;
5939;SDS011;2995;-31.998;115.906;2023-02-11T08:25:42;9.87;;;2.73;;
5939;SDS011;2995;-31.998;115.906;2023-02-11T08:28:13;7.33;;;1.93;;
5939;SDS011;2995;-31.998;115.906;2023-02-11T08:30:44;14.27;;;2.10;;
5939;SDS011;2995;-31.998;115.906;2023-02-11T08:33:15;10.90;;;2.40;;
5939;SDS011;2995;-31.998;115.906;2023-02-11T08:35:46;8.37;;;1.80;;
5939;SDS011;2995;-31.998;115.906;2023-02-11T08:38:17;10.23;;;2.67;;
5939;SDS011;2995;-31.998;115.906;2023-02-11T08:40:51;6.93;;;2.00;;
5939;SDS011;2995;-31.998;115.906;2023-02-11T08:43:22;7.00;;;2.27;;
5939;SDS011;2995;-31.998;115.906;2023-02-11T08:45:54;6.63;;;1.80;;
5939;SDS011;2995;-31.998;115.906;2023-02-11T08:48:25;10.53;;;2.30;;
5939;SDS011;2995;-31.998;115.906;2023-02-11T08:50:57;8.20;;;2.40;;
5939;SDS011;2995;-31.998;115.906;2023-02-11T08:53:28;10.10;;;3.27;;
5939;SDS011;2995;-31.998;115.906;2023-02-11T08:56:01;7.67;;;2.03;;
5939;SDS011;2995;-31.998;115.906;2023-02-11T08:58:33;7.17;;;2.10;;
5939;SDS011;2995;-31.998;115.906;2023-02-11T09:01:08;12.90;;;2.30;;
5939;SDS011;2995;-31.998;115.906;2023-02-11T09:03:39;11.10;;;2.50;;
5939;SDS011;2995;-31.998;115.906;2023-02-11T09:06:11;6.43;;;2.50;;
5939;SDS011;2995;-31.998;115.906;2023-02-11T09:08:43;7.87;;;2.87;;
5939;SDS011;2995;-31.998;115.906;2023-02-11T09:11:19;9.67;;;2.43;;
5939;SDS011;2995;-31.998;115.906;2023-02-11T09:13:53;5.67;;;2.17;;
5939;SDS011;2995;-31.998;115.906;2023-02-11T09:16:25;14.20;;;2.23;;
5939;SDS011;2995;-31.998;115.906;2023-02-11T09:18:58;6.57;;;2.37;;
5939;SDS011;2995;-31.998;115.906;2023-02-11T09:21:30;7.73;;;2.33;;
5939;SDS011;2995;-31.998;115.906;2023-02-11T09:24:01;16.00;;;5.47;;
5939;SDS011;2995;-31.998;115.906;2023-02-11T09:26:37;9.57;;;3.23;;
5939;SDS011;2995;-31.998;115.906;2023-02-11T09:29:11;17.27;;;8.97;;
5939;SDS011;2995;-31.998;115.906;2023-02-11T09:31:42;10.27;;;2.37;;
5939;SDS011;2995;-31.998;115.906;2023-02-11T09:34:14;11.47;;;3.23;;
5939;SDS011;2995;-31.998;115.906;2023-02-11T09:36:45;7.50;;;2.67;;
5939;SDS011;2995;-31.998;115.906;2023-02-11T09:39:16;12.63;;;2.77;;
5939;SDS011;2995;-31.998;115.906;2023-02-11T09:42:02;8.00;;;2.67;;
5939;SDS011;2995;-31.998;115.906;2023-02-11T09:44:43;12.80;;;3.57;;
5939;SDS011;2995;-31.998;115.906;2023-02-11T09:47:20;16.83;;;2.87;;
5939;SDS011;2995;-31.998;115.906;2023-02-11T09:49:57;8.80;;;2.63;;
5939;SDS011;2995;-31.998;115.906;2023-02-11T09:52:34;8.97;;;3.20;;
5939;SDS011;2995;-31.998;115.906;2023-02-11T09:55:13;14.40;;;5.00;;
5939;SDS011;2995;-31.998;115.906;2023-02-11T09:57:51;14.63;;;3.70;;
5939;SDS011;2995;-31.998;115.906;2023-02-11T10:00:24;13.07;;;3.90;;
5939;SDS011;2995;-31.998;115.906;2023-02-11T10:06:09;12.80;;;2.77;;
5939;SDS011;2995;-31.998;115.906;2023-02-11T10:09:05;19.50;;;4.30;;
5939;SDS011;2995;-31.998;115.906;2023-02-11T10:11:54;13.87;;;3.57;;
5939;SDS011;2995;-31.998;115.906;2023-02-11T10:14:43;10.90;;;5.97;;
5939;SDS011;2995;-31.998;115.906;2023-02-11T10:17:30;13.60;;;4.80;;
5939;SDS011;2995;-31.998;115.906;2023-02-11T10:20:11;14.33;;;5.80;;
5939;SDS011;2995;-31.998;115.906;2023-02-11T10:22:53;20.13;;;9.00;;
5939;SDS011;2995;-31.998;115.906;2023-02-11T10:25:27;12.03;;;3.40;;
5939;SDS011;2995;-31.998;115.906;2023-02-11T10:28:09;6.10;;;2.70;;
5939;SDS011;2995;-31.998;115.906;2023-02-11T10:30:45;12.20;;;3.03;;
5939;SDS011;2995;-31.998;115.906;2023-02-11T10:33:25;7.53;;;2.67;;
5939;SDS011;2995;-31.998;115.906;2023-02-11T10:35:59;10.50;;;3.73;;
5939;SDS011;2995;-31.998;115.906;2023-02-11T10:38:31;18.33;;;3.67;;
5939;SDS011;2995;-31.998;115.906;2023-02-11T10:41:02;9.47;;;3.17;;
5939;SDS011;2995;-31.998;115.906;2023-02-11T10:43:34;14.47;;;3.13;;
5939;SDS011;2995;-31.998;115.906;2023-02-11T10:46:09;13.90;;;3.97;;
5939;SDS011;2995;-31.998;115.906;2023-02-11T10:48:47;27.73;;;15.00;;
5939;SDS011;2995;-31.998;115.906;2023-02-11T10:51:19;31.47;;;21.30;;
5939;SDS011;2995;-31.998;115.906;2023-02-11T10:56:44;11.97;;;7.10;;
5939;SDS011;2995;-31.998;115.906;2023-02-11T10:59:19;15.37;;;5.20;;
5939;SDS011;2995;-31.998;115.906;2023-02-11T11:01:58;14.93;;;4.63;;
5939;SDS011;2995;-31.998;115.906;2023-02-11T11:04:36;18.83;;;4.10;;
5939;SDS011;2995;-31.998;115.906;2023-02-11T11:07:14;21.73;;;4.17;;
5939;SDS011;2995;-31.998;115.906;2023-02-11T11:09:49;11.17;;;2.57;;
5939;SDS011;2995;-31.998;115.906;2023-02-11T11:12:29;14.43;;;2.90;;
5939;SDS011;2995;-31.998;115.906;2023-02-11T11:15:16;9.23;;;3.03;;
5939;SDS011;2995;-31.998;115.906;2023-02-11T11:18:07;8.73;;;3.03;;
5939;SDS011;2995;-31.998;115.906;2023-02-11T11:20:43;14.20;;;3.40;;
5939;SDS011;2995;-31.998;115.906;2023-02-11T11:23:26;14.87;;;2.90;;
5939;SDS011;2995;-31.998;115.906;2023-02-11T11:26:00;12.90;;;2.50;;
5939;SDS011;2995;-31.998;115.906;2023-02-11T11:28:34;15.20;;;4.57;;
5939;SDS011;2995;-31.998;115.906;2023-02-11T11:31:11;9.47;;;2.80;;
5939;SDS011;2995;-31.998;115.906;2023-02-11T11:33:47;12.50;;;3.10;;
5939;SDS011;2995;-31.998;115.906;2023-02-11T11:36:22;14.30;;;3.27;;
5939;SDS011;2995;-31.998;115.906;2023-02-11T11:39:01;12.40;;;3.23;;
5939;SDS011;2995;-31.998;115.906;2023-02-11T11:41:54;21.07;;;3.33;;
5939;SDS011;2995;-31.998;115.906;2023-02-11T11:44:28;15.30;;;3.17;;
5939;SDS011;2995;-31.998;115.906;2023-02-11T11:47:16;12.67;;;2.73;;
5939;SDS011;2995;-31.998;115.906;2023-02-11T11:50:00;13.33;;;3.07;;
5939;SDS011;2995;-31.998;115.906;2023-02-11T11:52:45;10.70;;;2.87;;
5939;SDS011;2995;-31.998;115.906;2023-02-11T11:55:23;12.20;;;3.03;;
5939;SDS011;2995;-31.998;115.906;2023-02-11T11:57:57;10.03;;;2.70;;
5939;SDS011;2995;-31.998;115.906;2023-02-11T12:00:30;13.87;;;3.23;;
5939;SDS011;2995;-31.998;115.906;2023-02-11T12:06:20;11.43;;;3.30;;
5939;SDS011;2995;-31.998;115.906;2023-02-11T12:09:02;11.63;;;3.53;;
5939;SDS011;2995;-31.998;115.906;2023-02-11T12:11:51;14.43;;;3.23;;
5939;SDS011;2995;-31.998;115.906;2023-02-11T12:14:36;21.67;;;3.93;;
5939;SDS011;2995;-31.998;115.906;2023-02-11T12:17:21;23.47;;;3.40;;
5939;SDS011;2995;-31.998;115.906;2023-02-11T12:20:04;15.53;;;3.37;;
5939;SDS011;2995;-31.998;115.906;2023-02-11T12:23:03;18.10;;;4.13;;
5939;SDS011;2995;-31.998;115.906;2023-02-11T12:25:58;7.00;;;2.37;;
5939;SDS011;2995;-31.998;115.906;2023-02-11T12:28:37;13.37;;;3.90;;
5939;SDS011;2995;-31.998;115.906;2023-02-11T12:31:17;12.70;;;3.47;;
5939;SDS011;2995;-31.998;115.906;2023-02-11T12:34:07;20.03;;;4.27;;
5939;SDS011;2995;-31.998;115.906;2023-02-11T12:37:00;11.93;;;2.80;;
5939;SDS011;2995;-31.998;115.906;2023-02-11T12:39:43;15.00;;;3.37;;
5939;SDS011;2995;-31.998;115.906;2023-02-11T12:42:28;15.80;;;3.70;;
5939;SDS011;2995;-31.998;115.906;2023-02-11T12:45:42;18.43;;;4.00;;
5939;SDS011;2995;-31.998;115.906;2023-02-11T12:48:38;15.37;;;2.90;;
5939;SDS011;2995;-31.998;115.906;2023-02-11T12:51:25;13.93;;;3.23;;
5939;SDS011;2995;-31.998;115.906;2023-02-11T12:56:59;12.77;;;3.40;;
5939;SDS011;2995;-31.998;115.906;2023-02-11T12:59:42;8.00;;;2.67;;
5939;SDS011;2995;-31.998;115.906;2023-02-11T13:02:23;11.20;;;3.50;;
5939;SDS011;2995;-31.998;115.906;2023-02-11T13:05:00;11.33;;;3.37;;
5939;SDS011;2995;-31.998;115.906;2023-02-11T13:07:38;12.40;;;2.93;;
5939;SDS011;2995;-31.998;115.906;2023-02-11T13:10:18;11.60;;;2.90;;
5939;SDS011;2995;-31.998;115.906;2023-02-11T13:12:56;14.83;;;3.17;;
5939;SDS011;2995;-31.998;115.906;2023-02-11T13:15:46;14.20;;;3.50;;
5939;SDS011;2995;-31.998;115.906;2023-02-11T13:18:31;16.67;;;3.57;;
5939;SDS011;2995;-31.998;115.906;2023-02-11T13:21:30;11.80;;;2.53;;
5939;SDS011;2995;-31.998;115.906;2023-02-11T13:24:08;9.23;;;2.80;;
5939;SDS011;2995;-31.998;115.906;2023-02-11T13:26:49;17.47;;;3.70;;
5939;SDS011;2995;-31.998;115.906;2023-02-11T13:29:31;17.67;;;3.23;;
5939;SDS011;2995;-31.998;115.906;2023-02-11T13:32:11;12.70;;;2.93;;
5939;SDS011;2995;-31.998;115.906;2023-02-11T13:37:33;13.90;;;3.10;;
5939;SDS011;2995;-31.998;115.906;2023-02-11T13:40:18;12.00;;;2.97;;
5939;SDS011;2995;-31.998;115.906;2023-02-11T13:42:51;15.87;;;2.80;;
5939;SDS011;2995;-31.998;115.906;2023-02-11T13:45:29;12.30;;;3.03;;
5939;SDS011;2995;-31.998;115.906;2023-02-11T13:48:04;11.13;;;2.73;;
5939;SDS011;2995;-31.998;115.906;2023-02-11T13:50:46;10.57;;;2.83;;
5939;SDS011;2995;-31.998;115.906;2023-02-11T13:53:19;13.13;;;2.87;;
5939;SDS011;2995;-31.998;115.906;2023-02-11T13:55:52;12.80;;;3.13;;
5939;SDS011;2995;-31.998;115.906;2023-02-11T13:58:35;24.23;;;4.00;;
5939;SDS011;2995;-31.998;115.906;2023-02-11T14:01:23;8.97;;;2.87;;
5939;SDS011;2995;-31.998;115.906;2023-02-11T14:04:20;16.23;;;3.10;;
5939;SDS011;2995;-31.998;115.906;2023-02-11T14:07:27;12.20;;;2.60;;
5939;SDS011;2995;-31.998;115.906;2023-02-11T14:13:22;17.37;;;3.90;;
5939;SDS011;2995;-31.998;115.906;2023-02-11T14:16:04;10.17;;;2.30;;
5939;SDS011;2995;-31.998;115.906;2023-02-11T14:18:56;19.80;;;3.20;;
5939;SDS011;2995;-31.998;115.906;2023-02-11T14:21:31;14.23;;;3.23;;
5939;SDS011;2995;-31.998;115.906;2023-02-11T14:27:10;9.40;;;2.70;;
5939;SDS011;2995;-31.998;115.906;2023-02-11T14:29:49;9.80;;;3.10;;
5939;SDS011;2995;-31.998;115.906;2023-02-11T14:32:38;15.67;;;3.77;;
5939;SDS011;2995;-31.998;115.906;2023-02-11T14:35:23;10.80;;;2.63;;
5939;SDS011;2995;-31.998;115.906;2023-02-11T14:38:04;18.63;;;2.87;;
5939;SDS011;2995;-31.998;115.906;2023-02-11T14:40:47;29.87;;;3.70;;
5939;SDS011;2995;-31.998;115.906;2023-02-11T14:43:27;12.47;;;2.60;;
5939;SDS011;2995;-31.998;115.906;2023-02-11T14:46:03;11.67;;;3.30;;
5939;SDS011;2995;-31.998;115.906;2023-02-11T14:48:35;11.13;;;2.77;;
5939;SDS011;2995;-31.998;115.906;2023-02-11T14:51:11;18.70;;;3.73;;
5939;SDS011;2995;-31.998;115.906;2023-02-11T14:53:45;14.60;;;2.80;;
5939;SDS011;2995;-31.998;115.906;2023-02-11T14:56:19;11.47;;;2.37;;
5939;SDS011;2995;-31.998;115.906;2023-02-11T14:58:52;12.23;;;2.80;;
5939;SDS011;2995;-31.998;115.906;2023-02-11T15:01:25;15.83;;;2.77;;
5939;SDS011;2995;-31.998;115.906;2023-02-11T15:03:59;10.07;;;2.67;;
5939;SDS011;2995;-31.998;115.906;2023-02-11T15:06:35;11.77;;;2.23;;
5939;SDS011;2995;-31.998;115.906;2023-02-11T15:09:12;12.77;;;2.73;;
5939;SDS011;2995;-31.998;115.906;2023-02-11T15:11:45;17.53;;;2.60;;
5939;SDS011;2995;-31.998;115.906;2023-02-11T15:14:18;9.40;;;2.67;;
5939;SDS011;2995;-31.998;115.906;2023-02-11T15:16:52;8.53;;;1.87;;
5939;SDS011;2995;-31.998;115.906;2023-02-11T15:19:27;13.23;;;2.47;;
5939;SDS011;2995;-31.998;115.906;2023-02-11T15:22:03;15.17;;;2.57;;
5939;SDS011;2995;-31.998;115.906;2023-02-11T15:24:37;14.13;;;2.83;;
5939;SDS011;2995;-31.998;115.906;2023-02-11T15:27:10;10.20;;;2.00;;
5939;SDS011;2995;-31.998;115.906;2023-02-11T15:29:44;11.13;;;2.90;;
5939;SDS011;2995;-31.998;115.906;2023-02-11T15:32:16;10.93;;;2.60;;
5939;SDS011;2995;-31.998;115.906;2023-02-11T15:34:49;10.60;;;3.17;;
5939;SDS011;2995;-31.998;115.906;2023-02-11T15:37:25;14.17;;;3.00;;
5939;SDS011;2995;-31.998;115.906;2023-02-11T15:40:07;11.73;;;2.90;;
5939;SDS011;2995;-31.998;115.906;2023-02-11T15:42:39;15.57;;;3.10;;
5939;SDS011;2995;-31.998;115.906;2023-02-11T15:45:24;9.67;;;2.13;;
5939;SDS011;2995;-31.998;115.906;2023-02-11T15:47:58;6.43;;;2.40;;
5939;SDS011;2995;-31.998;115.906;2023-02-11T15:50:42;12.77;;;2.67;;